Time;durP1;ratioP1;P1;durP2;ratioP2;P2;SDS_P1;SDS_P2;PMS_P1;PMS_P2;Temp;Humidity;BMP_temperature;BMP_pressure;BME280_temperature;BME280_humidity;BME280_pressure;Samples;Min_cycle;Max_cycle;Signal;HPM_P1;HPM_P2
2022/01/03 00:01:22;;;;;;;0.70;0.40;;;;;;;12.91;65.71;100297.22;4926221;28;97926;-50
2022/01/03 00:03:48;;;;;;;1.67;0.40;;;;;;;12.90;65.98;100276.38;4929313;28;97566;-50
2022/01/03 00:06:15;;;;;;;1.00;0.40;;;;;;;12.86;65.84;100289.75;4927821;28;97319;-51
2022/01/03 00:08:43;;;;;;;0.70;0.43;;;;;;;12.84;65.77;100284.75;4935750;28;97528;-52
2022/01/03 00:11:14;;;;;;;0.50;0.40;;;;;;;12.80;65.84;100282.25;4932722;28;97269;-50
2022/01/03 00:13:45;;;;;;;0.40;0.30;;;;;;;12.80;66.04;100275.97;4921485;28;97589;-51
2022/01/03 00:16:10;;;;;;;0.50;0.50;;;;;;;12.80;65.95;100267.69;4924058;28;97530;-50
2022/01/03 00:18:37;;;;;;;0.80;0.40;;;;;;;12.77;65.98;100272.25;4925070;28;97476;-51
2022/01/03 00:21:07;;;;;;;1.50;0.60;;;;;;;12.75;66.18;100260.22;4925523;28;97414;-51
2022/01/03 00:23:34;;;;;;;1.67;0.40;;;;;;;12.74;66.23;100267.00;4931442;28;97562;-52
2022/01/03 00:26:02;;;;;;;0.53;0.53;;;;;;;12.72;66.38;100253.72;4931838;28;97319;-54
2022/01/03 00:28:39;;;;;;;0.50;0.50;;;;;;;12.74;66.17;100247.69;4935146;28;96979;-53
2022/01/03 00:31:05;;;;;;;0.50;0.50;;;;;;;12.69;66.43;100238.19;4927920;28;100436;-51
2022/01/03 00:33:31;;;;;;;0.60;0.50;;;;;;;12.67;66.27;100249.00;4934629;28;97181;-51
2022/01/03 00:36:03;;;;;;;2.13;0.83;;;;;;;12.68;66.40;100252.50;4927169;28;96887;-51
2022/01/03 00:38:33;;;;;;;0.80;0.60;;;;;;;12.69;66.43;100252.00;4925900;28;98450;-52
2022/01/03 00:40:59;;;;;;;1.27;0.60;;;;;;;12.67;66.52;100251.75;4922891;28;97388;-50
2022/01/03 00:43:26;;;;;;;1.50;0.90;;;;;;;12.69;66.81;100242.94;4922614;28;97211;-52
2022/01/03 00:45:53;;;;;;;2.30;0.70;;;;;;;12.69;66.61;100240.94;4930657;28;97075;-50
2022/01/03 00:48:19;;;;;;;2.63;0.53;;;;;;;12.70;66.56;100261.03;4932352;28;96959;-54
2022/01/03 00:50:45;;;;;;;0.70;0.70;;;;;;;12.69;67.06;100270.56;4932509;28;96718;-50
2022/01/03 00:53:10;;;;;;;2.10;0.93;;;;;;;12.70;66.86;100263.78;4936430;28;97084;-50
2022/01/03 00:55:38;;;;;;;1.23;0.80;;;;;;;12.71;66.88;100279.81;4927248;28;107924;-52
2022/01/03 00:58:08;;;;;;;0.93;0.93;;;;;;;12.73;67.01;100290.38;4925173;28;97431;-51
2022/01/03 01:00:40;;;;;;;1.00;0.90;;;;;;;12.73;67.14;100287.59;4927575;28;97062;-50
2022/01/03 01:03:20;;;;;;;0.80;0.63;;;;;;;12.76;67.66;100297.59;4921217;28;97096;-50
2022/01/03 01:05:53;;;;;;;4.40;1.10;;;;;;;12.73;67.08;100274.53;4924962;28;97220;-50
2022/01/03 01:08:23;;;;;;;1.90;0.70;;;;;;;12.72;66.97;100297.13;4928766;28;97572;-53
2022/01/03 01:10:52;;;;;;;2.40;1.00;;;;;;;12.72;67.04;100305.41;4927712;28;97180;-51
2022/01/03 01:13:19;;;;;;;1.30;0.70;;;;;;;12.73;66.86;100310.41;4927475;28;99302;-51
2022/01/03 01:15:44;;;;;;;4.93;0.70;;;;;;;12.69;66.86;100315.47;4933408;28;96626;-52
2022/01/03 01:18:10;;;;;;;1.17;0.50;;;;;;;12.66;66.59;100321.28;4930201;28;97973;-50
2022/01/03 01:20:36;;;;;;;0.50;0.50;;;;;;;12.61;66.54;100330.34;4929573;28;97169;-52
2022/01/03 01:23:04;;;;;;;2.10;0.40;;;;;;;12.60;66.66;100337.13;4925689;28;97041;-51
2022/01/03 01:28:01;;;;;;;0.60;0.40;;;;;;;12.59;66.53;100346.66;4923754;28;98620;-51
2022/01/03 01:30:28;;;;;;;6.53;0.77;;;;;;;12.59;66.28;100361.22;4926414;28;97563;-49
2022/01/03 01:33:14;;;;;;;2.50;0.50;;;;;;;12.56;66.29;100361.47;4928095;28;97382;-50
2022/01/03 01:35:42;;;;;;;0.57;0.40;;;;;;;12.50;66.40;100372.56;4929959;28;97456;-50
2022/01/03 01:38:14;;;;;;;0.40;0.30;;;;;;;12.49;66.39;100375.84;4929733;28;97547;-51
2022/01/03 01:40:46;;;;;;;0.50;0.30;;;;;;;12.48;66.46;100385.38;4929699;28;97343;-51
2022/01/03 01:43:12;;;;;;;0.40;0.30;;;;;;;12.47;66.57;100389.41;4927401;28;97158;-51
2022/01/03 01:45:40;;;;;;;0.50;0.40;;;;;;;12.41;66.60;100416.25;4933069;28;96808;-53
2022/01/03 01:48:09;;;;;;;0.40;0.30;;;;;;;12.32;66.51;100405.56;4926619;28;97170;-50
2022/01/03 01:50:38;;;;;;;0.40;0.30;;;;;;;12.26;66.72;100415.84;4925317;28;97344;-50
2022/01/03 01:53:05;;;;;;;2.97;0.40;;;;;;;12.23;66.77;100417.59;4919810;28;96919;-49
2022/01/03 01:55:30;;;;;;;0.50;0.40;;;;;;;12.22;66.80;100423.63;4923500;28;98842;-52
2022/01/03 01:58:04;;;;;;;1.20;0.47;;;;;;;12.20;67.17;100428.91;4925873;28;124078;-51
2022/01/03 02:00:32;;;;;;;0.93;0.40;;;;;;;12.17;66.99;100430.69;4931592;28;97618;-53
2022/01/03 02:03:24;;;;;;;0.50;0.40;;;;;;;12.17;67.31;100427.16;4922248;28;97371;-52
2022/01/03 02:06:26;;;;;;;0.93;0.40;;;;;;;12.12;67.61;100433.47;4927483;28;98026;-51
2022/01/03 02:09:25;;;;;;;1.63;0.60;;;;;;;12.14;67.63;100431.72;4891691;28;103231;-51
2022/01/03 02:11:53;;;;;;;0.50;0.50;;;;;;;12.14;67.09;100444.75;4918976;28;101994;-50
2022/01/03 02:14:20;;;;;;;0.50;0.50;;;;;;;12.17;66.95;100440.94;4920710;28;97277;-52
2022/01/03 02:16:46;;;;;;;2.10;0.50;;;;;;;12.21;66.67;100441.47;4927022;28;96836;-51
2022/01/03 02:19:12;;;;;;;0.83;0.40;;;;;;;12.21;66.95;100450.47;4926889;28;97167;-52
2022/01/03 02:21:38;;;;;;;1.27;0.40;;;;;;;12.20;66.83;100450.97;4931861;28;103828;-50
2022/01/03 02:24:04;;;;;;;0.50;0.40;;;;;;;12.19;66.96;100460.53;4927316;28;97220;-52
2022/01/03 02:26:30;;;;;;;7.47;0.93;;;;;;;12.17;66.87;100477.56;4928654;28;97055;-51
2022/01/03 02:28:56;;;;;;;2.67;0.60;;;;;;;12.12;66.90;100472.84;4930289;28;97404;-51
2022/01/03 02:31:22;;;;;;;2.40;0.50;;;;;;;12.11;66.97;100487.13;4926177;28;97287;-50
2022/01/03 02:33:47;;;;;;;2.07;0.70;;;;;;;12.11;66.90;100459.53;4928806;28;96718;-50
2022/01/03 02:36:13;;;;;;;4.00;0.70;;;;;;;12.12;66.97;100480.34;4928248;28;97859;-51
2022/01/03 02:38:38;;;;;;;4.57;0.50;;;;;;;12.13;67.10;100473.56;4926516;28;97393;-50
2022/01/03 02:41:04;;;;;;;1.37;0.70;;;;;;;12.12;66.91;100472.84;4925750;28;97220;-50
2022/01/03 02:43:29;;;;;;;3.30;0.73;;;;;;;12.15;66.86;100479.31;4920301;28;119107;-51
2022/01/03 02:45:54;;;;;;;1.83;0.70;;;;;;;12.17;66.76;100476.81;4920623;28;97452;-52
2022/01/03 02:48:23;;;;;;;7.40;1.10;;;;;;;12.20;66.65;100490.34;4927490;28;97689;-50
2022/01/03 02:50:49;;;;;;;4.50;0.90;;;;;;;12.21;67.02;100475.28;4926513;28;97993;-50
2022/01/03 02:53:15;;;;;;;7.30;0.70;;;;;;;12.22;66.70;100479.56;4933463;28;97246;-51
2022/01/03 02:55:41;;;;;;;1.20;0.80;;;;;;;12.25;66.91;100486.81;4925158;28;96918;-52
2022/01/03 02:58:07;;;;;;;3.63;1.03;;;;;;;12.25;66.72;100486.06;4934727;28;97424;-51
2022/01/03 03:00:36;;;;;;;3.40;0.93;;;;;;;12.25;66.72;100480.56;4926700;28;97224;-52
2022/01/03 03:03:03;;;;;;;6.50;1.20;;;;;;;12.25;66.79;100497.84;4921915;28;96983;-51
2022/01/03 03:05:28;;;;;;;4.43;0.93;;;;;;;12.28;66.53;100509.88;4930117;28;97006;-52
2022/01/03 03:07:54;;;;;;;3.57;1.00;;;;;;;12.28;66.53;100496.06;4922039;28;97377;-51
2022/01/03 03:10:21;;;;;;;5.23;0.80;;;;;;;12.30;66.38;100488.78;4935081;28;97181;-50
2022/01/03 03:12:46;;;;;;;4.23;1.80;;;;;;;12.29;66.50;100500.34;4930965;28;97073;-52
2022/01/03 03:15:14;;;;;;;8.23;0.90;;;;;;;12.27;66.60;100500.09;4924727;28;97047;-52
2022/01/03 03:17:40;;;;;;;1.20;0.80;;;;;;;12.30;66.51;100499.06;4923639;28;97338;-51
2022/01/03 03:20:07;;;;;;;3.27;1.33;;;;;;;12.31;66.46;100495.81;4924804;28;97330;-53
2022/01/03 03:22:33;;;;;;;2.07;0.90;;;;;;;12.34;66.50;100505.09;4928868;28;96952;-50
2022/01/03 03:25:06;;;;;;;3.97;1.13;;;;;;;12.38;66.38;100500.81;4928624;28;97394;-51
2022/01/03 03:27:32;;;;;;;2.80;1.00;;;;;;;12.39;66.42;100502.31;4925250;28;97479;-52
2022/01/03 03:29:57;;;;;;;2.10;1.37;;;;;;;12.39;66.07;100507.06;4923590;28;97487;-53
2022/01/03 03:32:25;;;;;;;3.30;0.80;;;;;;;12.42;66.47;100506.06;4922054;28;97030;-50
2022/01/03 03:34:51;;;;;;;1.70;0.70;;;;;;;12.42;66.32;100503.31;4922811;28;97786;-51
2022/01/03 03:37:17;;;;;;;2.03;0.90;;;;;;;12.41;66.23;100510.06;4922749;28;98539;-53
2022/01/03 03:39:43;;;;;;;2.00;0.73;;;;;;;12.40;66.36;100506.56;4925421;28;97564;-52
2022/01/03 03:42:10;;;;;;;6.13;0.97;;;;;;;12.42;66.19;100508.81;4929447;28;97550;-51
2022/01/03 03:44:36;;;;;;;5.53;1.20;;;;;;;12.44;66.33;100509.06;4928240;28;96783;-53
2022/01/03 03:47:03;;;;;;;7.53;1.70;;;;;;;12.44;66.09;100509.81;4928386;28;99551;-55
2022/01/03 03:49:29;;;;;;;5.90;1.07;;;;;;;12.41;66.21;100505.31;4930405;28;97057;-53
2022/01/03 03:51:54;;;;;;;5.53;1.00;;;;;;;12.43;66.34;100510.31;4924767;28;97024;-50
2022/01/03 03:54:20;;;;;;;2.70;0.90;;;;;;;12.45;66.19;100513.31;4919167;28;97243;-51
2022/01/03 03:56:45;;;;;;;3.37;1.10;;;;;;;12.45;66.20;100514.06;4928105;28;98580;-54
2022/01/03 03:59:10;;;;;;;6.40;1.20;;;;;;;12.45;66.32;100507.81;4928229;28;96927;-50
2022/01/03 04:01:36;;;;;;;3.43;1.30;;;;;;;12.44;66.35;100509.81;4930401;28;107966;-50
2022/01/03 04:04:02;;;;;;;4.43;1.00;;;;;;;12.46;66.15;100510.06;4927725;28;97850;-57
2022/01/03 04:06:27;;;;;;;3.73;1.20;;;;;;;12.47;66.08;100511.53;4932890;28;97276;-50
2022/01/03 04:08:52;;;;;;;10.73;1.70;;;;;;;12.49;66.09;100517.28;4931289;28;121592;-51
2022/01/03 04:11:18;;;;;;;3.83;0.93;;;;;;;12.50;66.12;100504.25;4931084;28;116940;-52
2022/01/03 04:13:43;;;;;;;7.27;1.77;;;;;;;12.47;66.16;100505.28;4927259;28;96872;-50
2022/01/03 04:16:09;;;;;;;2.43;1.10;;;;;;;12.46;66.15;100495.50;4922207;28;96750;-52
2022/01/03 04:18:34;;;;;;;2.70;1.00;;;;;;;12.45;66.33;100503.03;4923726;28;96995;-51
2022/01/03 04:21:00;;;;;;;5.43;1.23;;;;;;;12.44;66.22;100500.78;4926094;28;114685;-51
2022/01/03 04:23:26;;;;;;;6.50;1.27;;;;;;;12.47;66.13;100499.78;4922984;28;97428;-51
2022/01/03 04:25:51;;;;;;;3.70;1.20;;;;;;;12.49;66.06;100497.97;4930723;28;98794;-50
2022/01/03 04:28:17;;;;;;;5.63;0.97;;;;;;;12.50;65.90;100501.50;4926503;28;98297;-49
2022/01/03 04:30:42;;;;;;;3.90;1.00;;;;;;;12.48;66.00;100504.00;4935610;28;97105;-51
2022/01/03 04:33:07;;;;;;;5.20;1.10;;;;;;;12.46;66.13;100490.75;4931326;28;114509;-52
2022/01/03 04:35:33;;;;;;;1.23;1.13;;;;;;;12.46;66.00;100489.97;4929095;28;97292;-50
2022/01/03 04:37:58;;;;;;;8.63;1.53;;;;;;;12.45;65.88;100494.00;4924273;28;97700;-53
2022/01/03 04:40:23;;;;;;;4.60;1.00;;;;;;;12.46;66.08;100501.03;4925703;28;102593;-52
2022/01/03 04:42:51;;;;;;;4.13;1.10;;;;;;;12.49;65.89;100500.00;4927080;28;97101;-51
2022/01/03 04:45:17;;;;;;;10.23;1.47;;;;;;;12.50;65.79;100502.25;4927079;28;97854;-51
2022/01/03 04:47:42;;;;;;;2.57;0.83;;;;;;;12.51;66.09;100505.78;4928197;28;96855;-52
2022/01/03 04:50:07;;;;;;;6.83;1.50;;;;;;;12.55;65.82;100500.72;4929278;28;119229;-52
2022/01/03 04:52:33;;;;;;;5.13;1.20;;;;;;;12.54;65.74;100502.72;4930245;28;96812;-52
2022/01/03 04:55:00;;;;;;;3.90;0.73;;;;;;;12.55;65.71;100503.50;4930723;28;97367;-52
2022/01/03 04:57:25;;;;;;;6.13;1.03;;;;;;;12.58;65.75;100508.00;4927117;28;96807;-51
2022/01/03 04:59:50;;;;;;;4.03;1.47;;;;;;;12.58;65.53;100510.75;4929874;28;102095;-51
2022/01/03 05:02:16;;;;;;;12.80;1.90;;;;;;;12.58;65.51;100508.72;4930303;28;98132;-51
2022/01/03 05:04:41;;;;;;;9.83;1.30;;;;;;;12.59;65.48;100515.00;4924472;28;99970;-51
2022/01/03 05:07:06;;;;;;;13.67;1.37;;;;;;;12.58;65.57;100513.53;4925501;28;125681;-50
2022/01/03 05:09:32;;;;;;;9.73;1.70;;;;;;;12.57;65.32;100507.25;4925264;28;97196;-50
2022/01/03 05:11:57;;;;;;;6.70;1.40;;;;;;;12.57;65.50;100512.00;4928200;28;96994;-51
2022/01/03 05:14:23;;;;;;;2.07;0.90;;;;;;;12.56;65.45;100514.00;4931271;28;117638;-51
2022/01/03 05:16:49;;;;;;;8.23;1.73;;;;;;;12.54;65.57;100513.00;4930244;28;96869;-51
2022/01/03 05:19:14;;;;;;;8.50;1.77;;;;;;;12.52;65.54;100510.00;4934346;28;97512;-51
2022/01/03 05:21:40;;;;;;;7.20;1.23;;;;;;;12.51;65.67;100503.75;4928039;28;97874;-51
2022/01/03 05:24:05;;;;;;;6.60;1.40;;;;;;;12.52;65.49;100513.53;4925396;28;97291;-51
2022/01/03 05:26:31;;;;;;;7.13;1.40;;;;;;;12.51;65.68;100505.78;4932079;28;97513;-51
2022/01/03 05:28:56;;;;;;;8.10;1.37;;;;;;;12.51;65.47;100508.53;4929088;28;97216;-51
2022/01/03 05:31:22;;;;;;;8.13;1.90;;;;;;;12.50;65.36;100507.00;4928289;28;97067;-51
2022/01/03 05:33:48;;;;;;;6.93;1.37;;;;;;;12.49;65.43;100511.78;4924834;28;97435;-51
2022/01/03 05:36:14;;;;;;;5.70;1.50;;;;;;;12.48;65.48;100515.81;4924263;28;97046;-51
2022/01/03 05:38:39;;;;;;;3.60;1.33;;;;;;;12.50;65.47;100515.28;4931798;28;97157;-50
2022/01/03 05:41:04;;;;;;;5.23;1.33;;;;;;;12.49;65.56;100516.56;4928298;28;106809;-51
2022/01/03 05:43:29;;;;;;;6.70;1.10;;;;;;;12.49;65.36;100511.06;4933055;28;96760;-51
2022/01/03 05:45:55;;;;;;;3.03;1.03;;;;;;;12.50;65.45;100518.06;4927656;28;99327;-51
2022/01/03 05:48:20;;;;;;;10.67;1.60;;;;;;;12.50;65.34;100507.00;4930031;28;97964;-50
2022/01/03 05:50:45;;;;;;;12.93;1.67;;;;;;;12.49;65.32;100511.06;4934937;28;97246;-50
2022/01/03 05:53:11;;;;;;;9.23;1.63;;;;;;;12.49;65.41;100511.06;4924037;28;97517;-51
2022/01/03 05:55:36;;;;;;;4.60;1.53;;;;;;;12.49;65.26;100519.31;4925994;28;128104;-51
2022/01/03 05:58:01;;;;;;;10.30;1.60;;;;;;;12.49;65.55;100517.28;4923699;28;97021;-51
2022/01/03 06:00:28;;;;;;;8.40;1.60;;;;;;;12.49;65.58;100522.09;4926744;28;97276;-51
2022/01/03 06:02:57;;;;;;;4.50;1.43;;;;;;;12.43;65.45;100524.84;4930674;28;97634;-51
2022/01/03 06:05:41;;;;;;;7.80;2.00;;;;;;;12.42;65.45;100536.41;4926787;28;100319;-51
2022/01/03 06:08:07;;;;;;;9.53;1.60;;;;;;;12.38;65.48;100530.41;4929519;28;96979;-51
2022/01/03 06:10:33;;;;;;;6.43;1.73;;;;;;;12.37;65.59;100532.41;4931321;28;97372;-51
2022/01/03 06:12:58;;;;;;;8.30;1.20;;;;;;;12.37;65.77;100531.66;4929028;28;98032;-51
2022/01/03 06:15:25;;;;;;;6.53;1.40;;;;;;;12.39;65.76;100534.66;4928598;28;109664;-51
2022/01/03 06:17:51;;;;;;;9.83;1.60;;;;;;;12.37;65.50;100539.94;4923880;28;97307;-51
2022/01/03 06:20:17;;;;;;;6.63;1.30;;;;;;;12.36;65.57;100535.69;4925102;28;98013;-51
2022/01/03 06:22:42;;;;;;;6.67;1.73;;;;;;;12.34;65.75;100533.41;4917042;28;97626;-51
2022/01/03 06:25:09;;;;;;;11.60;1.87;;;;;;;12.36;65.70;100533.66;4922954;28;97324;-51
2022/01/03 06:27:38;;;;;;;10.47;1.80;;;;;;;12.37;65.57;100531.66;4934202;28;97012;-51
2022/01/03 06:30:05;;;;;;;4.50;1.30;;;;;;;12.36;65.84;100528.13;4924399;28;97153;-51
2022/01/03 06:32:31;;;;;;;9.03;1.53;;;;;;;12.36;65.78;100535.69;4929084;28;97392;-51
2022/01/03 06:34:56;;;;;;;8.40;1.70;;;;;;;12.35;65.79;100528.66;4924970;28;97539;-51
2022/01/03 06:37:21;;;;;;;4.07;1.20;;;;;;;12.33;65.88;100526.41;4924220;28;113809;-51
2022/01/03 06:39:46;;;;;;;5.40;1.50;;;;;;;12.33;65.95;100531.16;4928513;28;113571;-51
2022/01/03 06:42:12;;;;;;;9.73;2.03;;;;;;;12.30;66.10;100532.16;4930371;28;97421;-51
2022/01/03 06:44:37;;;;;;;8.57;1.63;;;;;;;12.31;66.13;100533.69;4923621;28;122924;-51
2022/01/03 06:47:03;;;;;;;8.03;1.50;;;;;;;12.29;66.32;100536.19;4919472;28;112518;-51
2022/01/03 06:49:28;;;;;;;10.17;1.87;;;;;;;12.28;66.24;100540.97;4926374;28;97617;-51
2022/01/03 06:51:53;;;;;;;6.70;1.80;;;;;;;12.25;66.12;100535.72;4921159;28;124845;-51
2022/01/03 06:54:19;;;;;;;8.57;1.67;;;;;;;12.23;66.07;100544.47;4924592;28;97148;-51
2022/01/03 06:56:44;;;;;;;11.70;2.43;;;;;;;12.24;66.03;100539.72;4928288;28;96931;-51
2022/01/03 06:59:09;;;;;;;10.40;1.90;;;;;;;12.20;66.00;100544.75;4930117;28;102536;-51
2022/01/03 07:01:35;;;;;;;8.27;1.60;;;;;;;12.14;66.41;100547.53;4927463;28;97024;-50
2022/01/03 07:04:01;;;;;;;5.83;1.50;;;;;;;12.15;66.17;100549.03;4928307;28;97634;-51
2022/01/03 07:06:26;;;;;;;3.43;1.47;;;;;;;12.15;66.17;100548.25;4921207;28;97637;-51
2022/01/03 07:08:51;;;;;;;4.00;1.80;;;;;;;12.16;66.41;100556.06;4924088;28;97247;-52
2022/01/03 07:11:17;;;;;;;10.93;2.53;;;;;;;12.15;66.29;100565.56;4920592;28;97542;-51
2022/01/03 07:13:49;;;;;;;3.00;1.63;;;;;;;12.14;66.34;100560.56;4920940;28;97082;-51
2022/01/03 07:19:00;;;;;;;9.23;2.90;;;;;;;12.14;66.15;100566.84;4929559;28;96792;-51
2022/01/03 07:21:30;;;;;;;7.67;1.53;;;;;;;12.16;66.08;100561.56;4920587;28;97164;-51
2022/01/03 07:23:56;;;;;;;4.67;1.63;;;;;;;12.18;66.19;100564.56;4931624;28;96796;-51
2022/01/03 07:26:22;;;;;;;15.57;1.80;;;;;;;12.18;66.31;100558.28;4924125;28;97140;-50
2022/01/03 07:28:47;;;;;;;10.70;2.13;;;;;;;12.17;66.11;100557.53;4932044;28;96804;-50
2022/01/03 07:31:13;;;;;;;14.27;2.80;;;;;;;12.17;66.08;100562.31;4929523;28;97025;-51
2022/01/03 07:33:38;;;;;;;8.00;1.57;;;;;;;12.16;66.00;100558.06;4922435;28;104961;-51
2022/01/03 07:36:04;;;;;;;7.60;1.53;;;;;;;12.17;66.14;100568.56;4920539;28;96894;-51
2022/01/03 07:38:29;;;;;;;10.97;1.50;;;;;;;12.18;66.15;100567.34;4927725;28;97013;-51
2022/01/03 07:40:54;;;;;;;8.40;1.70;;;;;;;12.21;66.14;100568.34;4928084;28;97185;-51
2022/01/03 07:43:20;;;;;;;9.93;2.27;;;;;;;12.21;65.85;100569.06;4923893;28;106935;-51
2022/01/03 07:45:45;;;;;;;9.17;1.47;;;;;;;12.24;65.81;100567.31;4928379;28;97447;-51
2022/01/03 07:48:11;;;;;;;8.77;1.70;;;;;;;12.26;65.90;100562.03;4935583;28;97231;-51
2022/01/03 07:50:36;;;;;;;8.20;2.37;;;;;;;12.29;65.68;100561.03;4926615;28;113953;-51
2022/01/03 07:53:01;;;;;;;7.57;1.87;;;;;;;12.31;65.78;100566.78;4927528;28;97246;-51
2022/01/03 07:55:27;;;;;;;11.03;1.60;;;;;;;12.34;65.87;100565.78;4927619;28;111074;-50
2022/01/03 07:57:53;;;;;;;5.67;1.53;;;;;;;12.33;65.56;100559.50;4926671;28;97344;-51
2022/01/03 08:00:20;;;;;;;8.60;1.53;;;;;;;12.34;65.68;100555.47;4925836;28;97579;-51
2022/01/03 08:02:45;;;;;;;10.23;2.03;;;;;;;12.34;65.57;100571.31;4924882;28;97165;-51
2022/01/03 08:05:14;;;;;;;14.00;2.57;;;;;;;12.36;65.65;100564.00;4928192;28;97075;-51
2022/01/03 08:07:40;;;;;;;8.43;2.20;;;;;;;12.39;65.68;100563.00;4929932;28;97398;-50
2022/01/03 08:10:08;;;;;;;10.83;1.80;;;;;;;12.42;65.50;100564.00;4929588;28;97321;-51
2022/01/03 08:12:34;;;;;;;10.00;2.00;;;;;;;12.43;65.42;100565.47;4930191;28;97212;-51
2022/01/03 08:14:59;;;;;;;6.63;1.97;;;;;;;12.42;65.31;100566.75;4929268;28;96914;-51
2022/01/03 08:17:25;;;;;;;9.33;1.83;;;;;;;12.43;65.45;100579.28;4930162;28;97066;-51
2022/01/03 08:19:51;;;;;;;8.33;2.10;;;;;;;12.43;65.47;100568.25;4929615;28;96944;-51
2022/01/03 08:22:17;;;;;;;17.93;2.10;;;;;;;12.44;65.38;100565.00;4926871;28;97279;-51
2022/01/03 08:24:43;;;;;;;8.40;2.20;;;;;;;12.43;65.42;100565.47;4926048;28;96864;-51
2022/01/03 08:27:08;;;;;;;11.20;2.00;;;;;;;12.44;65.36;100569.75;4928509;28;97024;-51
2022/01/03 08:29:33;;;;;;;13.77;2.30;;;;;;;12.42;65.27;100575.03;4932406;28;97856;-51
2022/01/03 08:31:59;;;;;;;10.13;1.77;;;;;;;12.44;65.56;100580.78;4933995;28;121915;-51
2022/01/03 08:34:25;;;;;;;7.00;1.50;;;;;;;12.47;65.38;100569.47;4927172;28;97640;-51
2022/01/03 08:36:50;;;;;;;7.10;2.00;;;;;;;12.50;65.25;100576.75;4931499;28;97207;-51
2022/01/03 08:39:16;;;;;;;10.27;2.20;;;;;;;12.52;65.20;100581.75;4927513;28;128297;-51
2022/01/03 08:41:41;;;;;;;9.23;1.70;;;;;;;12.56;65.14;100579.47;4929513;28;97168;-51
2022/01/03 08:44:07;;;;;;;4.87;1.10;;;;;;;12.57;65.26;100575.47;4930376;28;116901;-51
2022/01/03 08:46:33;;;;;;;8.17;1.77;;;;;;;12.58;64.94;100574.22;4923602;28;103755;-51
2022/01/03 08:48:58;;;;;;;12.17;1.87;;;;;;;12.57;64.95;100578.25;4930287;28;97460;-51
2022/01/03 08:51:25;;;;;;;9.60;2.00;;;;;;;12.59;64.87;100567.44;4928182;28;97554;-51
2022/01/03 08:53:51;;;;;;;12.17;2.00;;;;;;;12.62;64.98;100572.69;4926071;28;97449;-51
2022/01/03 08:56:16;;;;;;;7.03;1.50;;;;;;;12.66;65.00;100564.16;4929256;28;96782;-50
2022/01/03 08:58:41;;;;;;;8.03;2.10;;;;;;;12.71;64.76;100571.66;4924743;28;98783;-51
2022/01/03 09:01:07;;;;;;;11.50;2.23;;;;;;;12.70;64.66;100581.19;4931428;28;123984;-51
2022/01/03 09:03:32;;;;;;;8.63;1.70;;;;;;;12.74;64.63;100578.91;4926651;28;97088;-51
2022/01/03 09:05:57;;;;;;;5.20;1.90;;;;;;;12.75;64.44;100589.44;4928602;28;99217;-51
2022/01/03 09:08:23;;;;;;;10.53;2.17;;;;;;;12.79;64.46;100578.91;4930209;28;96969;-51
2022/01/03 09:10:50;;;;;;;14.10;2.00;;;;;;;12.82;64.43;100606.75;4918879;28;97945;-50
2022/01/03 09:13:15;;;;;;;10.20;2.30;;;;;;;12.84;64.32;100585.66;4924501;28;97312;-51
2022/01/03 09:15:44;;;;;;;6.20;2.17;;;;;;;12.84;64.20;100591.19;4926232;28;96984;-51
2022/01/03 09:18:15;;;;;;;8.80;2.30;;;;;;;12.87;64.19;100581.88;4930418;28;103255;-50
2022/01/03 09:20:41;;;;;;;6.67;1.90;;;;;;;12.86;64.09;100574.84;4934760;28;98273;-51
2022/01/03 09:23:12;;;;;;;12.07;2.00;;;;;;;12.85;64.14;100578.09;4923524;28;96992;-51
2022/01/03 09:30:50;;;;;;;10.13;2.67;;;;;;;12.94;64.10;100572.28;4927098;28;97118;-50
2022/01/03 09:33:16;;;;;;;10.60;2.37;;;;;;;12.96;64.03;100567.00;4930104;28;97046;-51
2022/01/03 09:35:43;;;;;;;8.80;1.93;;;;;;;12.96;63.93;100567.75;4924012;28;98015;-51
2022/01/03 09:38:09;;;;;;;12.23;2.27;;;;;;;12.95;63.96;100577.31;4923131;28;101180;-50
2022/01/03 09:40:36;;;;;;;5.43;2.30;;;;;;;12.98;64.10;100558.97;4935331;28;97149;-50
2022/01/03 09:43:02;;;;;;;7.40;2.70;;;;;;;12.97;63.95;100554.72;4926016;28;97983;-50
2022/01/03 09:45:32;;;;;;;7.20;2.53;;;;;;;12.96;64.03;100559.47;4937786;28;97016;-50
2022/01/03 09:47:59;;;;;;;6.30;2.40;;;;;;;12.95;63.93;100560.75;4930040;28;98713;-51
2022/01/03 09:50:25;;;;;;;4.50;2.20;;;;;;;12.98;63.96;100553.44;4931991;28;97368;-51
2022/01/03 09:52:51;;;;;;;7.00;2.00;;;;;;;13.01;63.95;100547.66;4929777;28;96892;-51
2022/01/03 09:55:19;;;;;;;3.87;2.27;;;;;;;13.07;63.84;100553.94;4925716;28;96797;-50
2022/01/03 09:57:46;;;;;;;9.23;2.70;;;;;;;13.15;63.62;100554.88;4931372;28;102069;-51
2022/01/03 10:00:14;;;;;;;7.40;1.90;;;;;;;13.20;63.66;100540.28;4888246;28;1109853;-50
2022/01/03 10:02:40;;;;;;;9.10;2.47;;;;;;;13.23;63.28;100550.31;4918783;28;97399;-51
2022/01/03 10:05:06;;;;;;;7.97;2.10;;;;;;;13.21;63.11;100546.56;4916938;28;97432;-50
2022/01/03 10:07:33;;;;;;;6.90;2.23;;;;;;;13.24;63.41;100537.97;4925235;28;100350;-50
2022/01/03 10:09:59;;;;;;;7.47;2.20;;;;;;;13.27;63.35;100534.22;4927186;28;97582;-50
2022/01/03 10:12:24;;;;;;;8.80;1.70;;;;;;;13.32;63.11;100529.91;4928830;28;97194;-50
2022/01/03 10:14:50;;;;;;;12.20;3.00;;;;;;;13.30;63.02;100524.16;4924429;28;96879;-50
2022/01/03 10:17:15;;;;;;;9.60;2.33;;;;;;;13.28;62.87;100530.16;4932927;28;119854;-51
2022/01/03 10:19:55;;;;;;;6.70;2.33;;;;;;;13.33;62.18;100532.16;4929408;28;112767;-51
2022/01/03 10:22:29;;;;;;;8.27;2.23;;;;;;;13.39;62.69;100523.81;4928858;28;97382;-50
2022/01/03 10:24:56;;;;;;;6.60;1.97;;;;;;;13.47;63.05;100522.75;4923502;28;96922;-50
2022/01/03 10:27:23;;;;;;;10.13;2.40;;;;;;;13.56;62.86;100518.16;4921255;28;98490;-50
2022/01/03 10:29:56;;;;;;;11.90;2.33;;;;;;;13.64;62.06;100527.38;4929249;28;97253;-50
2022/01/03 10:32:30;;;;;;;5.47;1.70;;;;;;;13.68;62.22;100512.00;4928017;28;97338;-53
2022/01/03 10:34:58;;;;;;;6.30;1.93;;;;;;;13.73;62.69;100504.91;4924717;28;97350;-51
2022/01/03 10:37:35;;;;;;;14.87;2.70;;;;;;;13.75;61.89;100525.25;4930445;28;97317;-50
2022/01/03 10:40:19;;;;;;;4.73;1.40;;;;;;;13.76;61.55;100504.63;4927081;28;102923;-50
2022/01/03 10:42:46;;;;;;;5.57;2.00;;;;;;;13.77;62.67;100513.66;4930079;28;96942;-50
2022/01/03 10:45:12;;;;;;;6.80;2.00;;;;;;;13.76;62.42;100506.66;4929218;28;97065;-51
2022/01/03 10:47:37;;;;;;;8.03;2.43;;;;;;;13.72;62.40;100503.41;4920402;28;97307;-50
2022/01/03 10:50:16;;;;;;;10.13;1.90;;;;;;;13.72;61.60;100506.16;4923953;28;96930;-50
2022/01/03 10:52:43;;;;;;;4.20;1.93;;;;;;;13.71;62.55;100508.22;4925248;28;97144;-50
2022/01/03 10:55:17;;;;;;;13.43;2.10;;;;;;;13.76;61.06;100503.91;4927471;28;96840;-50
2022/01/03 10:57:52;;;;;;;8.70;2.00;;;;;;;13.87;61.70;100501.03;4932794;28;126651;-50
2022/01/03 11:00:40;;;;;;;13.87;2.97;;;;;;;14.02;61.81;100495.81;4924554;28;101671;-50
2022/01/03 11:05:58;;;;;;;9.33;2.23;;;;;;;14.11;61.86;100487.91;4932457;28;97027;-50
2022/01/03 11:11:11;;;;;;;7.50;2.00;;;;;;;14.14;61.51;100497.19;4919374;28;98413;-50
2022/01/03 11:13:49;;;;;;;8.67;1.90;;;;;;;14.16;61.59;100489.88;4927017;28;100352;-50
2022/01/03 11:16:15;;;;;;;12.50;2.33;;;;;;;14.20;61.35;100484.03;4922410;28;98090;-50
2022/01/03 11:18:46;;;;;;;9.07;2.03;;;;;;;14.20;61.25;100500.63;4924127;28;96985;-50
2022/01/03 11:21:13;;;;;;;6.40;2.03;;;;;;;14.18;61.28;100500.41;4925947;28;97925;-50
2022/01/03 11:24:10;;;;;;;6.43;1.60;;;;;;;14.24;59.90;100495.56;4925759;28;97196;-50
2022/01/03 11:26:40;;;;;;;5.47;1.70;;;;;;;14.22;60.99;100498.09;4927247;28;97357;-50
2022/01/03 11:29:07;;;;;;;3.67;1.70;;;;;;;14.15;61.29;100499.44;4923901;28;100773;-50
2022/01/03 11:31:33;;;;;;;5.97;1.83;;;;;;;14.05;61.19;100497.53;4926543;28;97304;-50
2022/01/03 11:34:00;;;;;;;10.83;1.70;;;;;;;14.01;61.52;100494.31;4927012;28;97283;-50
2022/01/03 11:36:26;;;;;;;6.13;1.87;;;;;;;14.01;61.30;100489.53;4924971;28;96825;-50
2022/01/03 11:38:55;;;;;;;13.43;2.70;;;;;;;14.00;61.43;100488.03;4922729;28;97195;-50